Time;durP1;ratioP1;P1;durP2;ratioP2;P2;SDS_P1;SDS_P2;PMS_P1;PMS_P2;Temp;Humidity;BMP_temperature;BMP_pressure;BME280_temperature;BME280_humidity;BME280_pressure;Samples;Min_cycle;Max_cycle;Signal;HPM_P1;HPM_P2
2022/12/05 00:00:14;;;;;;;25.88;10.65;;;;;;;-0.18;100.00;95547.41;1011187;29;20020;-68
2022/12/05 00:00:44;;;;;;;31.72;11.82;;;;;;;-0.28;100.00;95530.53;1011020;29;20099;-64
2022/12/05 00:01:33;;;;;;;28.98;10.90;;;;;;;-0.22;100.00;95546.22;1010996;29;20041;-64
2022/12/05 00:02:04;;;;;;;32.74;11.70;;;;;;;-0.19;100.00;95546.59;1010998;29;20119;-65
2022/12/05 00:02:34;;;;;;;26.67;10.73;;;;;;;-0.15;100.00;95547.00;1012905;29;20041;-64
2022/12/05 00:03:05;;;;;;;32.25;11.57;;;;;;;-0.13;100.00;95542.44;1017276;29;20017;-64
2022/12/05 00:03:35;;;;;;;25.55;11.02;;;;;;;-0.10;100.00;95548.00;1018960;29;20015;-66
2022/12/05 00:04:07;;;;;;;25.13;10.40;;;;;;;-0.13;100.00;95543.25;1019179;29;20086;-65
2022/12/05 00:04:38;;;;;;;25.80;10.54;;;;;;;-0.09;100.00;95551.38;1018881;29;20107;-66
2022/12/05 00:05:09;;;;;;;29.10;11.55;;;;;;;-0.10;100.00;95558.31;1018595;29;20040;-65
2022/12/05 00:05:40;;;;;;;25.00;10.28;;;;;;;-0.18;100.00;95547.41;1014860;29;20043;-65
2022/12/05 00:06:11;;;;;;;32.03;10.43;;;;;;;-0.21;100.00;95558.91;1011349;29;20810;-66
2022/12/05 00:06:41;;;;;;;31.25;12.15;;;;;;;-0.26;100.00;95558.72;1010493;29;20024;-68
2022/12/05 00:07:12;;;;;;;29.50;11.73;;;;;;;-0.20;100.00;95554.53;1003060;29;20070;-66
2022/12/05 00:07:42;;;;;;;32.53;11.32;;;;;;;-0.24;100.00;95559.28;1009538;29;20028;-65
2022/12/05 00:08:13;;;;;;;30.27;11.77;;;;;;;-0.44;100.00;95541.25;1011297;29;20016;-64
2022/12/05 00:08:43;;;;;;;29.83;11.85;;;;;;;-0.35;100.00;95552.16;1009269;29;20438;-67
2022/12/05 00:09:14;;;;;;;35.85;12.05;;;;;;;-0.30;100.00;95560.91;1003024;29;20032;-67
2022/12/05 00:09:44;;;;;;;31.23;11.50;;;;;;;-0.32;100.00;95560.28;1003276;29;20021;-64
2022/12/05 00:10:15;;;;;;;30.23;11.35;;;;;;;-0.31;100.00;95558.50;1007077;29;20599;-64
2022/12/05 00:10:45;;;;;;;27.20;11.38;;;;;;;-0.39;100.00;95562.06;1003614;29;20100;-66
2022/12/05 00:11:18;;;;;;;35.25;11.68;;;;;;;-0.41;100.00;95558.91;1014328;29;20031;-67
2022/12/05 00:11:48;;;;;;;27.78;12.08;;;;;;;-0.37;100.00;95562.69;1014638;29;20020;-65
2022/12/05 00:12:19;;;;;;;29.50;11.38;;;;;;;-0.39;100.00;95567.22;1003140;29;20715;-64
2022/12/05 00:12:49;;;;;;;29.70;10.93;;;;;;;-0.39;100.00;95562.06;1010952;29;20032;-64
2022/12/05 00:13:19;;;;;;;28.50;10.90;;;;;;;-0.40;100.00;95555.34;1014961;29;20043;-66
2022/12/05 00:13:51;;;;;;;31.58;12.00;;;;;;;-0.45;100.00;95562.06;1014910;29;20071;-65
2022/12/05 00:14:21;;;;;;;30.44;12.34;;;;;;;-0.40;100.00;95552.78;1014622;29;20182;-65
2022/12/05 00:14:52;;;;;;;30.77;10.98;;;;;;;-0.34;100.00;95551.94;1011214;29;20033;-66
2022/12/05 00:15:22;;;;;;;31.00;11.48;;;;;;;-0.30;100.00;95554.94;1010925;29;20028;-64
2022/12/05 00:15:53;;;;;;;33.90;12.82;;;;;;;-0.37;100.00;95554.13;1011001;29;20575;-65
2022/12/05 00:16:25;;;;;;;33.05;12.32;;;;;;;-0.39;100.00;95549.19;1018706;29;20031;-66
2022/12/05 00:16:55;;;;;;;33.06;11.62;;;;;;;-0.33;100.00;95550.97;1014842;29;20079;-65
2022/12/05 00:17:25;;;;;;;33.10;12.65;;;;;;;-0.30;100.00;95550.59;1007608;29;20089;-65
2022/12/05 00:17:56;;;;;;;27.45;10.70;;;;;;;-0.28;100.00;95552.94;1010799;29;20064;-67
2022/12/05 00:18:26;;;;;;;31.38;12.63;;;;;;;-0.38;100.00;95542.25;1010947;29;20023;-66
2022/12/05 00:18:58;;;;;;;28.33;11.48;;;;;;;-0.40;100.00;95552.78;1011248;29;20020;-66
2022/12/05 00:19:29;;;;;;;31.00;11.98;;;;;;;-0.40;100.00;95555.34;1018503;29;20027;-66
2022/12/05 00:19:59;;;;;;;28.80;11.57;;;;;;;-0.41;100.00;95553.75;1010821;29;20530;-66
2022/12/05 00:20:30;;;;;;;32.47;13.50;;;;;;;-0.41;100.00;95558.91;1010892;29;20020;-65
2022/12/05 00:21:00;;;;;;;36.58;12.52;;;;;;;-0.46;100.00;95550.97;1010625;29;20052;-66
2022/12/05 00:21:32;;;;;;;32.72;12.88;;;;;;;-0.34;100.00;95561.47;1007379;29;20021;-65
2022/12/05 00:22:02;;;;;;;29.36;12.58;;;;;;;-0.33;100.00;95557.94;1005145;29;20102;-67
2022/12/05 00:22:37;;;;;;;34.63;11.98;;;;;;;-0.33;100.00;95563.88;1006303;29;20164;-64
2022/12/05 00:23:07;;;;;;;30.22;11.22;;;;;;;-0.34;100.00;95570.00;1007265;29;20428;-67
2022/12/05 00:23:38;;;;;;;35.28;12.88;;;;;;;-0.36;100.00;95564.25;1012190;29;20062;-66
2022/12/05 00:24:10;;;;;;;36.05;12.00;;;;;;;-0.42;100.00;95567.63;1018691;29;20047;-67
2022/12/05 00:24:41;;;;;;;29.58;11.52;;;;;;;-0.44;100.00;95564.44;1010976;29;20717;-65
2022/12/05 00:25:11;;;;;;;37.40;12.07;;;;;;;-0.44;100.00;95567.03;1014758;29;20035;-64
2022/12/05 00:25:42;;;;;;;33.63;12.25;;;;;;;-0.45;100.00;95562.88;1014848;29;20016;-66
2022/12/05 00:26:12;;;;;;;31.00;11.73;;;;;;;-0.44;100.00;95548.19;1010941;29;20024;-66
2022/12/05 00:26:43;;;;;;;32.28;12.32;;;;;;;-0.41;100.00;95556.31;1010910;29;20104;-64
2022/12/05 00:27:13;;;;;;;31.45;11.48;;;;;;;-0.46;100.00;95563.06;1011109;29;20024;-64
2022/12/05 00:27:44;;;;;;;34.78;12.15;;;;;;;-0.43;100.00;95566.03;1010394;29;20027;-65
2022/12/05 00:28:14;;;;;;;34.38;12.98;;;;;;;-0.43;100.00;95578.94;1014697;29;20029;-66
2022/12/05 00:28:45;;;;;;;30.23;12.60;;;;;;;-0.41;100.00;95579.50;1018717;29;20402;-66
2022/12/05 00:29:15;;;;;;;36.08;12.43;;;;;;;-0.42;100.00;95577.94;1010882;29;20060;-65
2022/12/05 00:29:46;;;;;;;35.40;12.88;;;;;;;-0.43;100.00;95581.50;1010779;29;20020;-64
2022/12/05 00:30:16;;;;;;;36.25;12.80;;;;;;;-0.43;100.00;95576.34;1010763;29;20020;-68
2022/12/05 00:30:47;;;;;;;30.45;12.10;;;;;;;-0.40;100.00;95578.53;1010992;29;20103;-64
2022/12/05 00:31:19;;;;;;;30.17;12.88;;;;;;;-0.32;100.00;95575.75;1018467;29;20027;-66
2022/12/05 00:31:50;;;;;;;39.84;13.42;;;;;;;-0.31;100.00;95564.44;1014796;29;20711;-63
2022/12/05 00:32:20;;;;;;;33.08;13.95;;;;;;;-0.30;100.00;95562.69;1014166;29;20024;-65
2022/12/05 00:32:51;;;;;;;35.33;13.02;;;;;;;-0.26;100.00;95561.28;1010838;29;20020;-66
2022/12/05 00:33:21;;;;;;;30.02;11.40;;;;;;;-0.24;100.00;95561.88;1014345;29;20020;-66
2022/12/05 00:33:52;;;;;;;29.25;11.82;;;;;;;-0.27;100.00;95555.34;1014786;29;20039;-64
2022/12/05 00:34:22;;;;;;;34.25;11.90;;;;;;;-0.22;100.00;95569.41;1014743;29;20410;-64
2022/12/05 00:34:53;;;;;;;32.95;11.95;;;;;;;-0.18;100.00;95558.50;1018836;29;20028;-65
2022/12/05 00:35:23;;;;;;;29.38;11.90;;;;;;;-0.17;100.00;95567.81;1018710;29;20028;-66
2022/12/05 00:35:54;;;;;;;32.33;12.15;;;;;;;-0.20;100.00;95575.97;1015084;29;20036;-64
2022/12/05 00:36:26;;;;;;;33.90;12.40;;;;;;;-0.28;100.00;95566.63;1014818;29;20502;-67
2022/12/05 00:36:56;;;;;;;26.96;11.46;;;;;;;-0.19;100.00;95566.44;1007007;29;20143;-65
2022/12/05 00:37:27;;;;;;;28.13;12.02;;;;;;;-0.15;100.00;95571.00;1007234;29;20667;-66
2022/12/05 00:37:57;;;;;;;31.30;12.20;;;;;;;-0.21;100.00;95573.56;1007233;29;20025;-65
2022/12/05 00:38:28;;;;;;;32.50;12.07;;;;;;;-0.25;100.00;95568.03;1010962;29;20016;-65
2022/12/05 00:38:59;;;;;;;25.63;11.20;;;;;;;-0.21;100.00;95566.63;1018553;29;20020;-64
2022/12/05 00:39:30;;;;;;;29.44;11.14;;;;;;;-0.19;100.00;95567.22;1014976;29;20107;-65
2022/12/05 00:40:00;;;;;;;29.58;10.90;;;;;;;-0.21;100.00;95574.38;1014653;29;20031;-65
2022/12/05 00:40:30;;;;;;;33.05;11.75;;;;;;;-0.19;100.00;95566.44;1010736;29;20032;-65
2022/12/05 00:41:05;;;;;;;25.83;10.25;;;;;;;-0.17;100.00;95565.22;1006958;29;20029;-65
2022/12/05 00:41:36;;;;;;;29.56;11.10;;;;;;;-0.22;100.00;95559.91;1007651;29;20820;-66
2022/12/05 00:42:06;;;;;;;28.27;11.68;;;;;;;-0.19;100.00;95563.88;1010898;29;20024;-65
2022/12/05 00:42:37;;;;;;;24.67;10.85;;;;;;;-0.18;100.00;95566.22;1010870;29;20017;-65
2022/12/05 00:43:07;;;;;;;26.98;11.65;;;;;;;-0.21;100.00;95565.84;1014741;29;20079;-65
2022/12/05 00:43:38;;;;;;;26.85;11.20;;;;;;;-0.18;100.00;95566.22;1018745;29;20410;-66
2022/12/05 00:44:09;;;;;;;28.35;11.13;;;;;;;-0.18;100.00;95563.66;1014757;29;20017;-66
2022/12/05 00:44:40;;;;;;;33.98;12.56;;;;;;;-0.17;100.00;95564.44;1010730;29;20021;-63
2022/12/05 00:45:10;;;;;;;28.20;11.63;;;;;;;-0.16;100.00;95566.06;1007084;29;20028;-64
2022/12/05 00:45:41;;;;;;;29.15;11.00;;;;;;;-0.18;100.00;95566.22;1006690;29;20078;-68
2022/12/05 00:46:13;;;;;;;28.17;10.88;;;;;;;-0.27;100.00;95552.75;1007365;29;20028;-66
2022/12/05 00:46:43;;;;;;;29.44;11.76;;;;;;;-0.20;100.00;95559.69;1007180;29;20017;-65
2022/12/05 00:47:14;;;;;;;25.90;9.90;;;;;;;-0.22;100.00;95557.31;1012789;29;20669;-65
2022/12/05 00:47:44;;;;;;;29.45;11.18;;;;;;;-0.21;100.00;95553.75;1010933;29;20096;-65
2022/12/05 00:48:15;;;;;;;26.38;10.15;;;;;;;-0.21;100.00;95550.38;1010917;29;20087;-65
2022/12/05 00:48:45;;;;;;;31.10;11.10;;;;;;;-0.19;100.00;95545.81;1007354;29;20028;-66
2022/12/05 00:49:16;;;;;;;31.08;10.93;;;;;;;-0.15;100.00;95554.72;1003162;29;20484;-65
2022/12/05 00:49:46;;;;;;;25.15;10.15;;;;;;;-0.14;100.00;95553.72;1007029;29;20029;-64
2022/12/05 00:50:17;;;;;;;28.50;11.10;;;;;;;-0.20;100.00;95559.69;1007182;29;20029;-65
2022/12/05 00:50:47;;;;;;;28.55;11.75;;;;;;;-0.24;100.00;95562.66;1003039;29;20032;-66
2022/12/05 00:51:28;;;;;;;28.23;11.43;;;;;;;-0.34;100.00;95554.53;1014541;29;20075;-67
2022/12/05 00:51:59;;;;;;;29.60;11.88;;;;;;;-0.29;100.00;95567.63;1010724;29;20028;-69
2022/12/05 00:52:29;;;;;;;30.98;11.38;;;;;;;-0.33;100.00;95566.44;1007573;29;20537;-66
2022/12/05 00:53:00;;;;;;;27.90;11.43;;;;;;;-0.30;100.00;95563.47;1006942;29;20021;-65
2022/12/05 00:53:30;;;;;;;34.40;12.48;;;;;;;-0.25;100.00;95573.97;1008556;29;20021;-65
2022/12/05 00:54:02;;;;;;;32.95;11.68;;;;;;;-0.24;100.00;95570.38;1010698;29;20029;-67
2022/12/05 00:54:33;;;;;;;31.00;11.72;;;;;;;-0.24;100.00;95577.34;1010954;29;20021;-64
2022/12/05 00:55:03;;;;;;;31.23;12.02;;;;;;;-0.26;100.00;95576.75;1010705;29;20057;-65
2022/12/05 00:55:36;;;;;;;34.88;12.18;;;;;;;-0.26;100.00;95582.69;1011744;29;20391;-66
2022/12/05 00:56:08;;;;;;;31.52;12.26;;;;;;;-0.30;100.00;95566.06;1018258;29;20438;-66
2022/12/05 00:56:39;;;;;;;28.26;11.84;;;;;;;-0.24;100.00;95585.84;1018681;29;20848;-69
2022/12/05 00:57:09;;;;;;;26.85;11.35;;;;;;;-0.26;100.00;95576.75;1018695;29;20031;-68
2022/12/05 00:57:40;;;;;;;35.47;12.73;;;;;;;-0.26;100.00;95577.53;1022428;29;20046;-63
2022/12/05 00:58:10;;;;;;;31.52;11.82;;;;;;;-0.32;100.00;95580.13;1018751;29;20402;-64
2022/12/05 00:58:41;;;;;;;33.58;11.68;;;;;;;-0.37;100.00;95575.56;1014949;29;20032;-64
2022/12/05 00:59:17;;;;;;;34.47;11.77;;;;;;;-0.30;100.00;95585.88;1010658;29;20095;-68
2022/12/05 00:59:48;;;;;;;34.14;12.64;;;;;;;-0.29;100.00;95587.47;1010911;29;20059;-69
2022/12/05 01:00:19;;;;;;;35.46;12.18;;;;;;;-0.30;100.00;95589.25;1010755;29;20040;-69
2022/12/05 01:00:49;;;;;;;39.08;12.27;;;;;;;-0.30;100.00;95591.03;1010690;29;20021;-67
2022/12/05 01:01:25;;;;;;;33.40;12.05;;;;;;;-0.34;100.00;95580.31;1011365;29;20095;-65
2022/12/05 01:01:55;;;;;;;35.18;11.14;;;;;;;-0.30;100.00;95593.63;1011599;29;20017;-66
2022/12/05 01:02:26;;;;;;;34.17;12.80;;;;;;;-0.26;100.00;95595.59;1013861;29;20119;-69
2022/12/05 01:02:56;;;;;;;35.72;12.15;;;;;;;-0.29;100.00;95593.41;1014599;29;20024;-65
2022/12/05 01:03:27;;;;;;;29.38;11.27;;;;;;;-0.30;100.00;95594.41;1011177;29;20025;-64
2022/12/05 01:03:58;;;;;;;29.75;11.73;;;;;;;-0.26;100.00;95608.47;1010847;29;20028;-65
2022/12/05 01:04:29;;;;;;;31.88;12.08;;;;;;;-0.28;100.00;95615.59;1018348;29;20150;-64
2022/12/05 01:04:59;;;;;;;30.75;11.57;;;;;;;-0.33;100.00;95606.91;1006800;29;20560;-64
2022/12/05 01:05:29;;;;;;;35.35;11.73;;;;;;;-0.38;100.00;95612.63;1007102;29;20024;-67
2022/12/05 01:06:00;;;;;;;33.33;12.68;;;;;;;-0.35;100.00;95617.38;1009237;29;20025;-63
2022/12/05 01:06:31;;;;;;;27.58;12.18;;;;;;;-0.38;100.00;95612.63;1014915;29;20013;-64
2022/12/05 01:07:01;;;;;;;35.90;12.73;;;;;;;-0.39;100.00;95613.63;1014536;29;20028;-67
2022/12/05 01:07:32;;;;;;;42.20;12.48;;;;;;;-0.40;100.00;95614.63;1014597;29;20119;-67
2022/12/05 01:08:02;;;;;;;34.90;12.25;;;;;;;-0.34;100.00;95621.53;1014765;29;20036;-63
2022/12/05 01:08:33;;;;;;;35.10;12.90;;;;;;;-0.36;100.00;95615.81;1010885;29;20511;-65
2022/12/05 01:09:04;;;;;;;37.55;11.82;;;;;;;-0.36;100.00;95623.53;1010601;29;20017;-65
2022/12/05 01:09:34;;;;;;;34.30;12.43;;;;;;;-0.32;100.00;95618.78;1006990;29;20508;-65
2022/12/05 01:10:05;;;;;;;29.42;12.38;;;;;;;-0.30;100.00;95619.41;1006861;29;20129;-66
2022/12/05 01:10:36;;;;;;;31.54;12.26;;;;;;;-0.30;100.00;95620.19;1011260;29;20412;-66
2022/12/05 01:11:07;;;;;;;27.65;11.27;;;;;;;-0.30;100.00;95609.88;1014705;29;20899;-64
2022/12/05 01:11:37;;;;;;;32.25;11.45;;;;;;;-0.26;100.00;95623.16;1014679;29;20027;-66
2022/12/05 01:12:08;;;;;;;33.20;12.20;;;;;;;-0.26;100.00;95618.78;1014775;29;20378;-64
2022/12/05 01:12:38;;;;;;;31.45;11.70;;;;;;;-0.24;100.00;95619.38;1013925;29;20035;-65
2022/12/05 01:13:09;;;;;;;29.05;11.75;;;;;;;-0.22;100.00;95623.56;1010750;29;20032;-64
2022/12/05 01:13:39;;;;;;;32.85;12.02;;;;;;;-0.23;100.00;95627.94;1010776;29;20040;-67
2022/12/05 01:14:10;;;;;;;31.58;12.15;;;;;;;-0.31;100.00;95625.53;1010694;29;20021;-67
2022/12/05 01:14:40;;;;;;;38.95;12.73;;;;;;;-0.28;100.00;95631.06;1010633;29;20016;-64
2022/12/05 01:15:11;;;;;;;32.90;11.68;;;;;;;-0.30;100.00;95627.91;1006827;29;20029;-63
2022/12/05 01:15:42;;;;;;;32.33;12.50;;;;;;;-0.29;100.00;95629.50;1006941;29;20029;-65
2022/12/05 01:16:18;;;;;;;42.65;12.48;;;;;;;-0.39;100.00;95623.94;1007009;29;20021;-65
2022/12/05 01:16:49;;;;;;;31.64;11.72;;;;;;;-0.41;100.00;95612.22;1010734;29;20056;-65
2022/12/05 01:17:20;;;;;;;36.04;12.02;;;;;;;-0.38;100.00;95625.50;1011635;29;20020;-63
2022/12/05 01:17:50;;;;;;;27.15;11.10;;;;;;;-0.43;100.00;95624.53;1016526;29;20039;-67
2022/12/05 01:18:21;;;;;;;29.88;11.30;;;;;;;-0.46;100.00;95617.97;1014240;29;20480;-65
2022/12/05 01:18:51;;;;;;;37.92;12.40;;;;;;;-0.43;100.00;95621.97;1018681;29;20020;-65
2022/12/05 01:19:29;;;;;;;37.70;12.63;;;;;;;-0.39;100.00;95629.09;1010541;29;20059;-65
2022/12/05 01:20:00;;;;;;;37.24;13.04;;;;;;;-0.37;100.00;95626.31;1014498;29;20662;-67
2022/12/05 01:20:30;;;;;;;35.67;11.93;;;;;;;-0.38;100.00;95622.94;1016432;29;20026;-65
2022/12/05 01:21:04;;;;;;;33.38;11.82;;;;;;;-0.39;100.00;95626.50;1013310;29;20035;-65
2022/12/05 01:21:34;;;;;;;33.84;13.40;;;;;;;-0.38;100.00;95620.38;1015089;29;20020;-64
2022/12/05 01:22:04;;;;;;;32.80;12.00;;;;;;;-0.40;100.00;95613.81;1014926;29;20028;-65
2022/12/05 01:22:35;;;;;;;38.58;11.85;;;;;;;-0.34;100.00;95621.53;1009734;29;20020;-66
2022/12/05 01:23:06;;;;;;;39.15;12.48;;;;;;;-0.37;100.00;95629.69;1009857;29;20067;-64
2022/12/05 01:23:36;;;;;;;39.30;12.48;;;;;;;-0.33;100.00;95630.09;1007447;29;20076;-65
2022/12/05 01:24:07;;;;;;;33.63;12.60;;;;;;;-0.34;100.00;95634.44;1003648;29;20585;-64
2022/12/05 01:24:38;;;;;;;36.28;12.56;;;;;;;-0.30;100.00;95637.44;1010777;29;20029;-64
2022/12/05 01:25:08;;;;;;;31.65;11.85;;;;;;;-0.32;100.00;95623.94;1010875;29;20028;-65
2022/12/05 01:25:40;;;;;;;32.75;11.65;;;;;;;-0.27;100.00;95631.88;1011256;29;20107;-69
2022/12/05 01:26:11;;;;;;;32.26;11.28;;;;;;;-0.33;100.00;95632.69;1014635;29;20442;-67
2022/12/05 01:26:42;;;;;;;30.26;11.54;;;;;;;-0.27;100.00;95635.25;1014855;29;20024;-64
2022/12/05 01:27:13;;;;;;;38.42;11.85;;;;;;;-0.24;100.00;95641.78;1007469;29;20177;-66
2022/12/05 01:27:43;;;;;;;32.25;11.65;;;;;;;-0.24;100.00;95642.56;1014908;29;20032;-65
2022/12/05 01:28:14;;;;;;;36.83;12.45;;;;;;;-0.27;100.00;95634.44;1014865;29;20023;-65
2022/12/05 01:28:44;;;;;;;37.88;12.68;;;;;;;-0.29;100.00;95644.97;1011264;29;20415;-67
2022/12/05 01:29:18;;;;;;;32.03;10.80;;;;;;;-0.25;100.00;95653.88;1011171;29;20033;-64
2022/12/05 01:29:48;;;;;;;35.28;12.12;;;;;;;-0.24;100.00;95650.31;1003627;29;20112;-63
2022/12/05 01:30:19;;;;;;;33.15;11.80;;;;;;;-0.22;100.00;95657.06;1004061;29;20033;-67
2022/12/05 01:30:49;;;;;;;30.98;11.85;;;;;;;-0.25;100.00;95655.69;1007764;29;20037;-66
2022/12/05 01:31:22;;;;;;;32.08;12.35;;;;;;;-0.41;100.00;95630.28;1008732;29;20029;-65
2022/12/05 01:31:53;;;;;;;31.64;11.60;;;;;;;-0.26;100.00;95654.88;1011211;29;20119;-64
2022/12/05 01:32:24;;;;;;;36.03;12.27;;;;;;;-0.29;100.00;95659.66;1010567;29;20025;-65
2022/12/05 01:32:54;;;;;;;34.83;12.68;;;;;;;-0.33;100.00;95661.81;1011090;29;20555;-64
2022/12/05 01:33:24;;;;;;;34.60;12.10;;;;;;;-0.35;100.00;95666.38;1011216;29;20028;-67
2022/12/05 01:33:57;;;;;;;39.90;12.55;;;;;;;-0.32;100.00;95671.13;1023057;28;20031;-65
2022/12/05 01:34:28;;;;;;;37.64;12.74;;;;;;;-0.32;100.00;95660.03;1015023;29;20034;-65
2022/12/05 01:34:58;;;;;;;37.30;13.73;;;;;;;-0.33;100.00;95666.19;1015071;29;20047;-64
2022/12/05 01:35:31;;;;;;;38.45;12.00;;;;;;;-0.37;100.00;95652.91;1015178;29;20032;-66
2022/12/05 01:36:02;;;;;;;37.86;12.68;;;;;;;-0.33;100.00;95663.59;1011396;29;20096;-66
2022/12/05 01:36:32;;;;;;;33.42;11.62;;;;;;;-0.40;100.00;95671.34;1007887;29;20613;-65
2022/12/05 01:37:03;;;;;;;33.63;12.48;;;;;;;-0.42;100.00;95673.31;1007074;29;20037;-65
2022/12/05 01:37:33;;;;;;;34.03;11.07;;;;;;;-0.43;100.00;95660.63;1003866;29;20025;-65
2022/12/05 01:38:04;;;;;;;37.75;12.30;;;;;;;-0.39;100.00;95660.03;1003834;29;20034;-64
2022/12/05 01:38:35;;;;;;;33.58;11.80;;;;;;;-0.33;100.00;95661.03;999817;29;20022;-64
2022/12/05 01:39:09;;;;;;;37.17;12.43;;;;;;;-0.34;100.00;95662.78;1007386;29;20049;-64
2022/12/05 01:39:39;;;;;;;36.50;12.28;;;;;;;-0.29;100.00;95654.50;1012063;29;20724;-65
2022/12/05 01:40:10;;;;;;;36.75;11.98;;;;;;;-0.32;100.00;95654.88;1012318;29;20029;-65
2022/12/05 01:40:40;;;;;;;40.58;13.25;;;;;;;-0.34;100.00;95657.63;1011352;29;20063;-64
2022/12/05 01:41:16;;;;;;;34.92;11.88;;;;;;;-0.34;100.00;95662.00;1011524;29;20035;-64
2022/12/05 01:41:48;;;;;;;36.90;11.46;;;;;;;-0.35;100.00;95666.38;1015804;29;20118;-63
2022/12/05 01:42:18;;;;;;;38.22;13.02;;;;;;;-0.39;100.00;95654.88;1015488;29;20119;-63
2022/12/05 01:42:48;;;;;;;40.35;13.20;;;;;;;-0.34;100.00;95652.47;1018869;29;20035;-63
2022/12/05 01:43:19;;;;;;;37.05;12.02;;;;;;;-0.34;100.00;95656.84;1015017;29;20087;-66
2022/12/05 01:43:56;;;;;;;33.45;11.90;;;;;;;-0.33;100.00;95664.41;1015039;29;20617;-66
2022/12/05 01:44:27;;;;;;;35.60;12.20;;;;;;;-0.32;100.00;95662.63;1018995;29;20050;-66
2022/12/05 01:45:03;;;;;;;38.90;13.07;;;;;;;-0.37;100.00;95660.63;1016009;29;20032;-64
2022/12/05 01:45:38;;;;;;;34.82;12.56;;;;;;;-0.41;100.00;95654.25;1007205;29;20024;-64
2022/12/05 01:46:09;;;;;;;37.00;12.04;;;;;;;-0.31;100.00;95657.25;1003603;29;20519;-64
2022/12/05 01:46:47;;;;;;;46.72;14.13;;;;;;;-0.34;100.00;95656.84;1003462;29;20044;-65
2022/12/05 01:47:18;;;;;;;40.24;12.18;;;;;;;-0.32;100.00;95650.50;1007470;29;20120;-64
2022/12/05 01:47:48;;;;;;;39.35;13.63;;;;;;;-0.28;100.00;95646.53;1008630;29;20029;-64
2022/12/05 01:48:21;;;;;;;43.42;13.15;;;;;;;-0.29;100.00;95644.19;1011243;29;20024;-64
2022/12/05 01:48:54;;;;;;;38.28;14.00;;;;;;;-0.28;100.00;95653.50;1005527;29;20134;-65
2022/12/05 01:49:29;;;;;;;40.12;12.32;;;;;;;-0.26;100.00;95660.03;1007833;29;20587;-64
2022/12/05 01:49:59;;;;;;;39.58;13.00;;;;;;;-0.35;100.00;95645.75;1007255;29;20064;-65
2022/12/05 01:50:31;;;;;;;37.70;13.52;;;;;;;-0.33;100.00;95659.25;1004435;29;20034;-64
2022/12/05 01:51:02;;;;;;;42.32;13.48;;;;;;;-0.32;100.00;95671.13;1010936;29;20035;-64
2022/12/05 01:51:32;;;;;;;42.65;13.73;;;;;;;-0.39;100.00;95670.34;1015124;29;20025;-65
2022/12/05 01:52:06;;;;;;;39.22;12.82;;;;;;;-0.41;100.00;95677.47;1011102;29;20032;-63
2022/12/05 01:52:37;;;;;;;46.42;13.86;;;;;;;-0.33;100.00;95690.19;1014465;29;20115;-64
2022/12/05 01:53:07;;;;;;;39.70;13.25;;;;;;;-0.34;100.00;95696.31;1019024;29;20063;-66
2022/12/05 01:53:38;;;;;;;45.78;13.85;;;;;;;-0.36;100.00;95695.72;1015065;29;20113;-66
2022/12/05 01:54:08;;;;;;;41.28;13.75;;;;;;;-0.34;100.00;95685.19;1014904;29;20032;-64
2022/12/05 01:54:39;;;;;;;45.97;13.60;;;;;;;-0.32;100.00;95694.34;1011368;29;20017;-67
2022/12/05 01:55:12;;;;;;;43.85;14.15;;;;;;;-0.28;100.00;95695.53;1007382;29;20024;-67
2022/12/05 01:55:42;;;;;;;39.32;14.36;;;;;;;-0.30;100.00;95694.94;1007983;29;20073;-65
2022/12/05 01:56:13;;;;;;;37.47;13.52;;;;;;;-0.30;100.00;95692.38;1007794;29;20017;-63
2022/12/05 01:56:49;;;;;;;41.88;14.32;;;;;;;-0.37;100.00;95680.44;1011589;29;20012;-66
2022/12/05 01:57:19;;;;;;;54.74;14.74;;;;;;;-0.37;100.00;95683.00;1011166;29;20514;-63
2022/12/05 01:57:50;;;;;;;53.97;14.90;;;;;;;-0.31;100.00;95687.41;1015120;29;20068;-64
2022/12/05 01:58:20;;;;;;;42.67;13.85;;;;;;;-0.30;100.00;95687.22;1015102;29;20478;-64
2022/12/05 01:58:51;;;;;;;53.30;15.73;;;;;;;-0.31;100.00;95693.34;1011365;29;20013;-64
2022/12/05 01:59:21;;;;;;;50.03;15.65;;;;;;;-0.30;100.00;95697.53;1007262;29;20029;-67
2022/12/05 01:59:54;;;;;;;43.58;14.88;;;;;;;-0.32;100.00;95685.81;1015817;29;20054;-64
2022/12/05 02:00:25;;;;;;;47.86;14.78;;;;;;;-0.25;100.00;95691.78;1019238;29;20148;-65
2022/12/05 02:00:55;;;;;;;48.00;15.60;;;;;;;-0.29;100.00;95696.53;1016055;29;20515;-67
2022/12/05 02:01:25;;;;;;;45.97;14.27;;;;;;;-0.26;100.00;95697.94;1011814;29;20089;-65
2022/12/05 02:01:56;;;;;;;47.80;16.02;;;;;;;-0.26;100.00;95701.28;1011423;29;20021;-65
2022/12/05 02:02:27;;;;;;;51.88;17.02;;;;;;;-0.31;100.00;95690.75;1010821;29;20024;-64
2022/12/05 02:02:59;;;;;;;49.30;15.28;;;;;;;-0.24;100.00;95693.34;1007467;29;20411;-64
2022/12/05 02:03:30;;;;;;;53.48;15.66;;;;;;;-0.25;100.00;95697.72;1003735;29;20119;-64
2022/12/05 02:04:00;;;;;;;56.13;16.40;;;;;;;-0.24;100.00;95688.97;1007661;29;20055;-63
2022/12/05 02:04:32;;;;;;;54.00;15.95;;;;;;;-0.21;100.00;95697.31;1011503;29;20502;-64
2022/12/05 02:05:09;;;;;;;54.96;16.00;;;;;;;-0.25;100.00;95687.41;1011284;29;20044;-64
2022/12/05 02:05:39;;;;;;;51.62;16.04;;;;;;;-0.29;100.00;95691.38;1011306;29;20017;-64
2022/12/05 02:06:09;;;;;;;52.60;14.45;;;;;;;-0.31;100.00;95680.44;1003354;29;20018;-67
2022/12/05 02:06:40;;;;;;;53.13;15.35;;;;;;;-0.27;100.00;95681.66;1011600;29;20021;-64
2022/12/05 02:07:10;;;;;;;57.88;16.20;;;;;;;-0.27;100.00;95683.44;1011213;29;20675;-64
2022/12/05 02:07:42;;;;;;;45.15;15.35;;;;;;;-0.26;100.00;95685.81;1017343;29;20571;-63
2022/12/05 02:08:12;;;;;;;59.38;17.02;;;;;;;-0.23;100.00;95679.50;1007652;29;20021;-64
2022/12/05 02:08:43;;;;;;;57.28;15.82;;;;;;;-0.20;100.00;95694.56;1010922;29;20159;-64
2022/12/05 02:09:14;;;;;;;55.90;15.25;;;;;;;-0.20;100.00;95699.72;1011495;29;20044;-69
2022/12/05 02:09:44;;;;;;;51.15;15.35;;;;;;;-0.19;100.00;95698.72;1011430;29;20479;-64
2022/12/05 02:10:15;;;;;;;53.53;16.13;;;;;;;-0.27;100.00;95704.88;1014928;29;20035;-65
2022/12/05 02:10:50;;;;;;;55.50;16.08;;;;;;;-0.29;100.00;95701.69;1019389;29;20067;-67
2022/12/05 02:11:22;;;;;;;48.18;16.42;;;;;;;-0.29;100.00;95701.69;1014954;29;20028;-66
2022/12/05 02:11:54;;;;;;;53.76;16.40;;;;;;;-0.30;100.00;95702.69;1014988;29;20032;-64
2022/12/05 02:12:24;;;;;;;58.58;16.04;;;;;;;-0.30;100.00;95694.16;1014602;29;20096;-65
2022/12/05 02:12:55;;;;;;;51.30;16.40;;;;;;;-0.29;100.00;95696.53;1011114;29;20507;-65
2022/12/05 02:13:46;;;;;;;47.47;15.93;;;;;;;-0.23;100.00;95707.84;1007610;29;20029;-64
2022/12/05 02:14:35;;;;;;;52.46;15.86;;;;;;;-0.24;100.00;95713.97;1009837;29;20036;-65
2022/12/05 02:15:27;;;;;;;53.58;16.20;;;;;;;-0.25;100.00;95715.75;1017543;29;20107;-65
2022/12/05 02:16:02;;;;;;;51.34;17.14;;;;;;;-0.28;100.00;95718.72;1022828;29;20106;-67
2022/12/05 02:16:47;;;;;;;58.72;16.50;;;;;;;-0.19;100.00;95727.09;1019218;29;20832;-65
2022/12/05 02:17:37;;;;;;;52.74;14.48;;;;;;;-0.16;100.00;95721.53;1014985;29;20083;-67
2022/12/05 02:18:35;;;;;;;54.30;16.40;;;;;;;-0.21;100.00;95736.00;1011592;29;20407;-65
2022/12/05 02:19:18;;;;;;;61.82;16.54;;;;;;;-0.22;100.00;95729.25;1009501;29;20052;-65
2022/12/05 02:20:06;;;;;;;60.28;16.24;;;;;;;-0.19;100.00;95729.66;1014138;29;20506;-64
2022/12/05 02:21:01;;;;;;;64.52;17.88;;;;;;;-0.21;100.00;95726.47;1012851;29;20459;-64
2022/12/05 02:21:57;;;;;;;61.02;16.58;;;;;;;-0.25;100.00;95718.34;1018963;29;20035;-66
2022/12/05 02:22:49;;;;;;;56.08;16.10;;;;;;;-0.30;100.00;95710.41;1016542;29;20020;-64
2022/12/05 02:23:36;;;;;;;60.74;16.82;;;;;;;-0.27;100.00;95704.88;1011407;29;20029;-66
2022/12/05 02:24:25;;;;;;;60.22;16.50;;;;;;;-0.22;100.00;95696.53;1008751;29;20028;-64
2022/12/05 02:25:16;;;;;;;51.66;16.42;;;;;;;-0.18;100.00;95690.00;1013474;29;20549;-65
2022/12/05 02:25:55;;;;;;;;;;;;;;;-0.14;100.00;95692.97;1016865;29;20024;-64
2022/12/05 02:26:34;;;;;;;58.16;16.78;;;;;;;-0.16;100.00;95710.44;1021395;29;20012;-64